sensor_id;sensor_type;location;lat;lon;timestamp;P1;durP1;ratioP1;P2;durP2;ratioP2
78508;SDS011;67802;50.846;7.958;2023-07-20T10:10:01;5.05;;;2.20;;
78508;SDS011;67802;50.846;7.958;2023-07-20T10:12:28;5.43;;;2.00;;
78508;SDS011;67802;50.846;7.958;2023-07-20T10:15:15;4.38;;;2.22;;
78508;SDS011;67802;50.846;7.958;2023-07-20T10:20:36;4.40;;;1.90;;
78508;SDS011;67802;50.846;7.958;2023-07-20T10:23:04;4.95;;;2.25;;
78508;SDS011;67802;50.846;7.958;2023-07-20T10:25:30;3.95;;;1.80;;
78508;SDS011;67802;50.846;7.958;2023-07-20T10:27:57;4.38;;;1.80;;
78508;SDS011;67802;50.846;7.958;2023-07-20T10:30:23;4.45;;;1.95;;
78508;SDS011;67802;50.846;7.958;2023-07-20T10:32:50;3.10;;;1.35;;
78508;SDS011;67802;50.846;7.958;2023-07-20T10:35:16;3.50;;;1.70;;
78508;SDS011;67802;50.846;7.958;2023-07-20T10:40:33;4.45;;;2.10;;
78508;SDS011;67802;50.846;7.958;2023-07-20T10:43:04;4.75;;;1.75;;
78508;SDS011;67802;50.846;7.958;2023-07-20T10:45:33;5.18;;;1.88;;
78508;SDS011;67802;50.846;7.958;2023-07-20T10:48:02;4.38;;;1.80;;
78508;SDS011;67802;50.846;7.958;2023-07-20T10:50:29;7.43;;;2.00;;
78508;SDS011;67802;50.846;7.958;2023-07-20T10:55:49;3.90;;;1.67;;
78508;SDS011;67802;50.846;7.958;2023-07-20T10:58:31;4.75;;;1.77;;
78508;SDS011;67802;50.846;7.958;2023-07-20T11:00:57;4.20;;;2.00;;
78508;SDS011;67802;50.846;7.958;2023-07-20T11:03:32;3.78;;;1.77;;
78508;SDS011;67802;50.846;7.958;2023-07-20T11:05:59;4.05;;;1.70;;
78508;SDS011;67802;50.846;7.958;2023-07-20T11:08:40;3.83;;;1.70;;
78508;SDS011;67802;50.846;7.958;2023-07-20T11:11:22;4.22;;;1.63;;
78508;SDS011;67802;50.846;7.958;2023-07-20T11:13:55;4.43;;;1.67;;
78508;SDS011;67802;50.846;7.958;2023-07-20T11:16:31;3.10;;;1.50;;
78508;SDS011;67802;50.846;7.958;2023-07-20T11:21:24;4.05;;;1.70;;
78508;SDS011;67802;50.846;7.958;2023-07-20T11:23:49;5.40;;;1.92;;
78508;SDS011;67802;50.846;7.958;2023-07-20T11:26:16;3.75;;;1.80;;
78508;SDS011;67802;50.846;7.958;2023-07-20T11:28:47;4.63;;;1.70;;
78508;SDS011;67802;50.846;7.958;2023-07-20T11:31:14;4.53;;;1.60;;
78508;SDS011;67802;50.846;7.958;2023-07-20T11:33:41;4.00;;;1.88;;
78508;SDS011;67802;50.846;7.958;2023-07-20T11:36:08;3.58;;;1.60;;
78508;SDS011;67802;50.846;7.958;2023-07-20T11:38:34;3.42;;;1.55;;
78508;SDS011;67802;50.846;7.958;2023-07-20T11:40:59;2.95;;;1.60;;
78508;SDS011;67802;50.846;7.958;2023-07-20T11:43:24;4.20;;;1.63;;
78508;SDS011;67802;50.846;7.958;2023-07-20T11:45:51;3.72;;;1.70;;
78508;SDS011;67802;50.846;7.958;2023-07-20T11:48:16;4.15;;;1.58;;
78508;SDS011;67802;50.846;7.958;2023-07-20T11:50:42;4.20;;;1.65;;
78508;SDS011;67802;50.846;7.958;2023-07-20T11:53:08;3.72;;;1.45;;
78508;SDS011;67802;50.846;7.958;2023-07-20T11:55:34;3.35;;;1.60;;
78508;SDS011;67802;50.846;7.958;2023-07-20T11:58:06;3.55;;;1.33;;
78508;SDS011;67802;50.846;7.958;2023-07-20T12:00:32;3.95;;;1.77;;
78508;SDS011;67802;50.846;7.958;2023-07-20T12:02:58;4.15;;;1.70;;
78508;SDS011;67802;50.846;7.958;2023-07-20T12:05:24;3.35;;;1.40;;
78508;SDS011;67802;50.846;7.958;2023-07-20T12:07:51;2.95;;;1.48;;
78508;SDS011;67802;50.846;7.958;2023-07-20T12:10:22;2.60;;;1.30;;
78508;SDS011;67802;50.846;7.958;2023-07-20T12:12:53;4.55;;;1.77;;
78508;SDS011;67802;50.846;7.958;2023-07-20T12:15:25;3.00;;;1.30;;
78508;SDS011;67802;50.846;7.958;2023-07-20T12:17:52;3.00;;;1.50;;
78508;SDS011;67802;50.846;7.958;2023-07-20T12:23:09;2.95;;;1.40;;
78508;SDS011;67802;50.846;7.958;2023-07-20T12:25:39;2.88;;;1.23;;
78508;SDS011;67802;50.846;7.958;2023-07-20T12:28:08;2.95;;;1.40;;
78508;SDS011;67802;50.846;7.958;2023-07-20T12:30:36;3.30;;;1.40;;
78508;SDS011;67802;50.846;7.958;2023-07-20T12:33:02;2.92;;;1.40;;
78508;SDS011;67802;50.846;7.958;2023-07-20T12:35:29;4.07;;;1.30;;
78508;SDS011;67802;50.846;7.958;2023-07-20T12:37:55;3.13;;;1.40;;
78508;SDS011;67802;50.846;7.958;2023-07-20T12:40:20;2.75;;;1.40;;
78508;SDS011;67802;50.846;7.958;2023-07-20T12:42:46;6.13;;;2.80;;
78508;SDS011;67802;50.846;7.958;2023-07-20T12:45:11;11.73;;;5.38;;
78508;SDS011;67802;50.846;7.958;2023-07-20T12:47:36;13.32;;;5.22;;
78508;SDS011;67802;50.846;7.958;2023-07-20T12:50:02;30.52;;;14.65;;
78508;SDS011;67802;50.846;7.958;2023-07-20T12:52:29;42.78;;;19.80;;
78508;SDS011;67802;50.846;7.958;2023-07-20T12:54:55;29.75;;;15.38;;
78508;SDS011;67802;50.846;7.958;2023-07-20T12:57:20;24.25;;;11.40;;
78508;SDS011;67802;50.846;7.958;2023-07-20T12:59:45;22.67;;;10.38;;
78508;SDS011;67802;50.846;7.958;2023-07-20T13:02:10;14.75;;;7.05;;
78508;SDS011;67802;50.846;7.958;2023-07-20T13:04:36;11.77;;;6.03;;
78508;SDS011;67802;50.846;7.958;2023-07-20T13:07:01;10.50;;;5.17;;
78508;SDS011;67802;50.846;7.958;2023-07-20T13:09:26;12.20;;;5.78;;
78508;SDS011;67802;50.846;7.958;2023-07-20T13:11:52;11.93;;;4.75;;
78508;SDS011;67802;50.846;7.958;2023-07-20T13:14:17;9.52;;;4.20;;
78508;SDS011;67802;50.846;7.958;2023-07-20T13:16:43;10.88;;;4.32;;
78508;SDS011;67802;50.846;7.958;2023-07-20T13:19:08;8.00;;;3.70;;
78508;SDS011;67802;50.846;7.958;2023-07-20T13:21:34;7.93;;;3.33;;
78508;SDS011;67802;50.846;7.958;2023-07-20T13:23:59;9.50;;;3.88;;
78508;SDS011;67802;50.846;7.958;2023-07-20T13:26:24;8.27;;;3.53;;
78508;SDS011;67802;50.846;7.958;2023-07-20T13:28:50;7.00;;;3.90;;
78508;SDS011;67802;50.846;7.958;2023-07-20T13:31:15;6.93;;;2.90;;
78508;SDS011;67802;50.846;7.958;2023-07-20T13:33:42;7.85;;;2.67;;
78508;SDS011;67802;50.846;7.958;2023-07-20T13:36:07;5.25;;;2.60;;
78508;SDS011;67802;50.846;7.958;2023-07-20T13:38:33;5.88;;;2.90;;
78508;SDS011;67802;50.846;7.958;2023-07-20T13:40:58;5.85;;;2.40;;
78508;SDS011;67802;50.846;7.958;2023-07-20T13:43:23;4.75;;;2.20;;
78508;SDS011;67802;50.846;7.958;2023-07-20T13:45:49;5.35;;;2.30;;
78508;SDS011;67802;50.846;7.958;2023-07-20T13:48:14;6.72;;;2.22;;
78508;SDS011;67802;50.846;7.958;2023-07-20T13:50:40;4.35;;;2.03;;
78508;SDS011;67802;50.846;7.958;2023-07-20T13:53:05;4.53;;;2.00;;
78508;SDS011;67802;50.846;7.958;2023-07-20T13:55:31;4.78;;;1.98;;
78508;SDS011;67802;50.846;7.958;2023-07-20T13:57:58;5.25;;;1.95;;
78508;SDS011;67802;50.846;7.958;2023-07-20T14:00:24;4.90;;;1.83;;
78508;SDS011;67802;50.846;7.958;2023-07-20T14:02:51;4.60;;;1.80;;
78508;SDS011;67802;50.846;7.958;2023-07-20T14:05:18;4.00;;;1.80;;
78508;SDS011;67802;50.846;7.958;2023-07-20T14:07:44;4.07;;;1.50;;
78508;SDS011;67802;50.846;7.958;2023-07-20T14:10:09;3.08;;;1.33;;
78508;SDS011;67802;50.846;7.958;2023-07-20T14:12:35;3.55;;;1.45;;
78508;SDS011;67802;50.846;7.958;2023-07-20T14:15:00;3.47;;;1.50;;
78508;SDS011;67802;50.846;7.958;2023-07-20T14:17:25;4.20;;;1.77;;
78508;SDS011;67802;50.846;7.958;2023-07-20T14:19:51;3.13;;;1.40;;
78508;SDS011;67802;50.846;7.958;2023-07-20T14:22:18;4.50;;;1.52;;
78508;SDS011;67802;50.846;7.958;2023-07-20T14:24:43;3.20;;;1.47;;
78508;SDS011;67802;50.846;7.958;2023-07-20T14:27:08;2.70;;;1.30;;
78508;SDS011;67802;50.846;7.958;2023-07-20T14:29:34;3.70;;;1.42;;
78508;SDS011;67802;50.846;7.958;2023-07-20T14:32:01;3.75;;;1.65;;
78508;SDS011;67802;50.846;7.958;2023-07-20T14:34:26;3.25;;;1.55;;
78508;SDS011;67802;50.846;7.958;2023-07-20T14:36:52;4.50;;;1.55;;
78508;SDS011;67802;50.846;7.958;2023-07-20T14:39:18;4.70;;;1.45;;
78508;SDS011;67802;50.846;7.958;2023-07-20T14:41:44;3.38;;;1.42;;
78508;SDS011;67802;50.846;7.958;2023-07-20T14:44:09;2.80;;;1.35;;
78508;SDS011;67802;50.846;7.958;2023-07-20T14:46:35;3.40;;;1.40;;
78508;SDS011;67802;50.846;7.958;2023-07-20T14:49:00;3.72;;;1.60;;
78508;SDS011;67802;50.846;7.958;2023-07-20T14:51:27;5.20;;;1.48;;
78508;SDS011;67802;50.846;7.958;2023-07-20T14:53:58;2.78;;;1.20;;
78508;SDS011;67802;50.846;7.958;2023-07-20T14:56:23;2.88;;;1.40;;
78508;SDS011;67802;50.846;7.958;2023-07-20T14:58:48;3.72;;;1.35;;
78508;SDS011;67802;50.846;7.958;2023-07-20T15:01:14;3.27;;;1.33;;
78508;SDS011;67802;50.846;7.958;2023-07-20T15:03:39;3.67;;;1.50;;
78508;SDS011;67802;50.846;7.958;2023-07-20T15:06:04;3.85;;;1.35;;
78508;SDS011;67802;50.846;7.958;2023-07-20T15:08:35;2.65;;;1.10;;
78508;SDS011;67802;50.846;7.958;2023-07-20T15:11:00;2.70;;;1.30;;
78508;SDS011;67802;50.846;7.958;2023-07-20T15:13:26;2.45;;;1.20;;
78508;SDS011;67802;50.846;7.958;2023-07-20T15:15:51;2.72;;;1.35;;
78508;SDS011;67802;50.846;7.958;2023-07-20T15:18:16;3.35;;;1.40;;
78508;SDS011;67802;50.846;7.958;2023-07-20T15:20:42;2.88;;;1.20;;
78508;SDS011;67802;50.846;7.958;2023-07-20T15:23:07;2.78;;;1.30;;
78508;SDS011;67802;50.846;7.958;2023-07-20T15:25:32;3.78;;;1.60;;
78508;SDS011;67802;50.846;7.958;2023-07-20T15:27:58;2.83;;;1.35;;
78508;SDS011;67802;50.846;7.958;2023-07-20T15:30:23;3.50;;;1.50;;
78508;SDS011;67802;50.846;7.958;2023-07-20T15:32:48;3.22;;;1.20;;
78508;SDS011;67802;50.846;7.958;2023-07-20T15:35:13;2.90;;;1.50;;
78508;SDS011;67802;50.846;7.958;2023-07-20T15:37:39;2.92;;;1.45;;
78508;SDS011;67802;50.846;7.958;2023-07-20T15:40:04;4.63;;;1.50;;
78508;SDS011;67802;50.846;7.958;2023-07-20T15:42:31;4.82;;;1.50;;
78508;SDS011;67802;50.846;7.958;2023-07-20T15:44:56;4.72;;;1.58;;
78508;SDS011;67802;50.846;7.958;2023-07-20T15:47:22;2.83;;;1.30;;
78508;SDS011;67802;50.846;7.958;2023-07-20T15:49:47;4.85;;;1.60;;
78508;SDS011;67802;50.846;7.958;2023-07-20T15:52:13;4.13;;;1.50;;
78508;SDS011;67802;50.846;7.958;2023-07-20T15:54:40;3.30;;;1.40;;
78508;SDS011;67802;50.846;7.958;2023-07-20T15:57:06;3.25;;;1.50;;
78508;SDS011;67802;50.846;7.958;2023-07-20T15:59:33;2.97;;;1.40;;
78508;SDS011;67802;50.846;7.958;2023-07-20T16:01:58;3.00;;;1.50;;
78508;SDS011;67802;50.846;7.958;2023-07-20T16:04:24;2.92;;;1.58;;
78508;SDS011;67802;50.846;7.958;2023-07-20T16:06:49;4.22;;;1.60;;
78508;SDS011;67802;50.846;7.958;2023-07-20T16:09:14;3.65;;;1.45;;
78508;SDS011;67802;50.846;7.958;2023-07-20T16:11:40;3.47;;;1.50;;
78508;SDS011;67802;50.846;7.958;2023-07-20T16:14:05;3.25;;;1.50;;
78508;SDS011;67802;50.846;7.958;2023-07-20T16:16:31;3.15;;;1.50;;
78508;SDS011;67802;50.846;7.958;2023-07-20T16:18:59;3.05;;;1.40;;
78508;SDS011;67802;50.846;7.958;2023-07-20T16:21:24;2.53;;;1.30;;
78508;SDS011;67802;50.846;7.958;2023-07-20T16:23:50;4.22;;;1.40;;
78508;SDS011;67802;50.846;7.958;2023-07-20T16:26:15;3.08;;;1.52;;
78508;SDS011;67802;50.846;7.958;2023-07-20T16:28:41;3.47;;;1.55;;
78508;SDS011;67802;50.846;7.958;2023-07-20T16:31:11;3.25;;;1.33;;
78508;SDS011;67802;50.846;7.958;2023-07-20T16:33:38;3.42;;;1.40;;
78508;SDS011;67802;50.846;7.958;2023-07-20T16:36:08;3.35;;;1.23;;
78508;SDS011;67802;50.846;7.958;2023-07-20T16:38:34;2.70;;;1.20;;
78508;SDS011;67802;50.846;7.958;2023-07-20T16:40:59;2.53;;;1.40;;
78508;SDS011;67802;50.846;7.958;2023-07-20T16:43:25;3.33;;;1.42;;
78508;SDS011;67802;50.846;7.958;2023-07-20T16:45:50;2.92;;;1.45;;
78508;SDS011;67802;50.846;7.958;2023-07-20T16:48:15;2.63;;;1.23;;
78508;SDS011;67802;50.846;7.958;2023-07-20T16:50:41;3.28;;;1.40;;
78508;SDS011;67802;50.846;7.958;2023-07-20T16:53:06;2.95;;;1.35;;
78508;SDS011;67802;50.846;7.958;2023-07-20T16:55:31;3.65;;;1.40;;
78508;SDS011;67802;50.846;7.958;2023-07-20T16:57:57;2.75;;;1.30;;
78508;SDS011;67802;50.846;7.958;2023-07-20T17:00:22;3.72;;;1.23;;
78508;SDS011;67802;50.846;7.958;2023-07-20T17:02:47;3.58;;;1.35;;
78508;SDS011;67802;50.846;7.958;2023-07-20T17:05:13;2.42;;;1.20;;
78508;SDS011;67802;50.846;7.958;2023-07-20T17:07:39;3.20;;;1.45;;
78508;SDS011;67802;50.846;7.958;2023-07-20T17:10:05;2.75;;;1.30;;
78508;SDS011;67802;50.846;7.958;2023-07-20T17:12:32;3.50;;;1.55;;
78508;SDS011;67802;50.846;7.958;2023-07-20T17:15:01;2.60;;;1.20;;
78508;SDS011;67802;50.846;7.958;2023-07-20T17:17:27;2.40;;;1.30;;
78508;SDS011;67802;50.846;7.958;2023-07-20T17:19:52;1.83;;;1.10;;
78508;SDS011;67802;50.846;7.958;2023-07-20T17:22:17;2.17;;;1.15;;
78508;SDS011;67802;50.846;7.958;2023-07-20T17:24:42;3.53;;;1.40;;
78508;SDS011;67802;50.846;7.958;2023-07-20T17:27:08;2.47;;;1.10;;
78508;SDS011;67802;50.846;7.958;2023-07-20T17:29:33;2.88;;;1.23;;
78508;SDS011;67802;50.846;7.958;2023-07-20T17:31:58;2.60;;;1.30;;
78508;SDS011;67802;50.846;7.958;2023-07-20T17:34:24;3.00;;;1.25;;
78508;SDS011;67802;50.846;7.958;2023-07-20T17:36:49;4.95;;;1.40;;
78508;SDS011;67802;50.846;7.958;2023-07-20T17:39:15;2.45;;;1.38;;
78508;SDS011;67802;50.846;7.958;2023-07-20T17:41:40;2.53;;;1.20;;
78508;SDS011;67802;50.846;7.958;2023-07-20T17:44:06;4.10;;;1.27;;
78508;SDS011;67802;50.846;7.958;2023-07-20T17:46:31;3.22;;;1.17;;
78508;SDS011;67802;50.846;7.958;2023-07-20T17:48:56;2.10;;;1.10;;
78508;SDS011;67802;50.846;7.958;2023-07-20T17:51:22;3.05;;;1.38;;
78508;SDS011;67802;50.846;7.958;2023-07-20T17:53:47;2.03;;;1.00;;
78508;SDS011;67802;50.846;7.958;2023-07-20T17:56:12;3.13;;;1.40;;
78508;SDS011;67802;50.846;7.958;2023-07-20T17:58:38;2.80;;;1.23;;
78508;SDS011;67802;50.846;7.958;2023-07-20T18:01:03;3.10;;;1.30;;
78508;SDS011;67802;50.846;7.958;2023-07-20T18:03:28;2.33;;;1.15;;
78508;SDS011;67802;50.846;7.958;2023-07-20T18:05:54;3.22;;;1.45;;
78508;SDS011;67802;50.846;7.958;2023-07-20T18:08:20;2.90;;;1.38;;
78508;SDS011;67802;50.846;7.958;2023-07-20T18:10:46;2.22;;;1.17;;
78508;SDS011;67802;50.846;7.958;2023-07-20T18:13:11;3.97;;;1.83;;
78508;SDS011;67802;50.846;7.958;2023-07-20T18:15:36;2.53;;;1.20;;
78508;SDS011;67802;50.846;7.958;2023-07-20T18:18:02;2.73;;;1.27;;
78508;SDS011;67802;50.846;7.958;2023-07-20T18:20:27;2.85;;;1.30;;
78508;SDS011;67802;50.846;7.958;2023-07-20T18:22:52;3.05;;;1.30;;
78508;SDS011;67802;50.846;7.958;2023-07-20T18:25:18;2.83;;;1.17;;
78508;SDS011;67802;50.846;7.958;2023-07-20T18:27:44;1.80;;;1.00;;
78508;SDS011;67802;50.846;7.958;2023-07-20T18:30:09;2.17;;;1.10;;
78508;SDS011;67802;50.846;7.958;2023-07-20T18:32:35;2.38;;;1.13;;
78508;SDS011;67802;50.846;7.958;2023-07-20T18:35:00;2.30;;;1.17;;
78508;SDS011;67802;50.846;7.958;2023-07-20T18:37:27;2.55;;;1.20;;
78508;SDS011;67802;50.846;7.958;2023-07-20T18:39:53;2.53;;;1.15;;
78508;SDS011;67802;50.846;7.958;2023-07-20T18:42:18;2.47;;;1.30;;
78508;SDS011;67802;50.846;7.958;2023-07-20T18:44:44;2.85;;;1.23;;
78508;SDS011;67802;50.846;7.958;2023-07-20T18:47:09;2.67;;;1.20;;
78508;SDS011;67802;50.846;7.958;2023-07-20T18:49:35;1.98;;;1.10;;
78508;SDS011;67802;50.846;7.958;2023-07-20T18:52:01;2.80;;;1.33;;
78508;SDS011;67802;50.846;7.958;2023-07-20T18:54:28;2.33;;;1.10;;
78508;SDS011;67802;50.846;7.958;2023-07-20T18:56:54;2.33;;;1.10;;
78508;SDS011;67802;50.846;7.958;2023-07-20T18:59:19;1.63;;;0.90;;
78508;SDS011;67802;50.846;7.958;2023-07-20T19:01:45;2.45;;;1.20;;
78508;SDS011;67802;50.846;7.958;2023-07-20T19:04:11;3.70;;;1.10;;
78508;SDS011;67802;50.846;7.958;2023-07-20T19:06:36;3.05;;;1.35;;
78508;SDS011;67802;50.846;7.958;2023-07-20T19:09:01;3.90;;;1.10;;
78508;SDS011;67802;50.846;7.958;2023-07-20T19:11:27;2.72;;;1.20;;
78508;SDS011;67802;50.846;7.958;2023-07-20T19:13:52;2.78;;;1.25;;
78508;SDS011;67802;50.846;7.958;2023-07-20T19:16:17;3.17;;;1.20;;
78508;SDS011;67802;50.846;7.958;2023-07-20T19:18:44;4.32;;;1.30;;
78508;SDS011;67802;50.846;7.958;2023-07-20T19:21:09;2.13;;;1.20;;
78508;SDS011;67802;50.846;7.958;2023-07-20T19:23:35;3.08;;;1.30;;
78508;SDS011;67802;50.846;7.958;2023-07-20T19:26:07;3.33;;;1.20;;
78508;SDS011;67802;50.846;7.958;2023-07-20T19:28:34;2.88;;;1.05;;
78508;SDS011;67802;50.846;7.958;2023-07-20T19:31:00;2.70;;;1.20;;
78508;SDS011;67802;50.846;7.958;2023-07-20T19:33:26;2.20;;;1.10;;
78508;SDS011;67802;50.846;7.958;2023-07-20T19:35:51;2.28;;;1.10;;
78508;SDS011;67802;50.846;7.958;2023-07-20T19:38:23;2.00;;;1.10;;
78508;SDS011;67802;50.846;7.958;2023-07-20T19:40:49;2.88;;;1.20;;
78508;SDS011;67802;50.846;7.958;2023-07-20T19:43:15;2.72;;;1.10;;
78508;SDS011;67802;50.846;7.958;2023-07-20T19:45:40;3.08;;;1.08;;
78508;SDS011;67802;50.846;7.958;2023-07-20T19:48:06;2.45;;;1.30;;
78508;SDS011;67802;50.846;7.958;2023-07-20T19:50:32;3.45;;;1.40;;
78508;SDS011;67802;50.846;7.958;2023-07-20T19:52:57;2.65;;;1.20;;
78508;SDS011;67802;50.846;7.958;2023-07-20T19:55:23;2.63;;;1.20;;
78508;SDS011;67802;50.846;7.958;2023-07-20T19:57:48;2.75;;;1.20;;
78508;SDS011;67802;50.846;7.958;2023-07-20T20:00:13;2.55;;;1.10;;
78508;SDS011;67802;50.846;7.958;2023-07-20T20:02:39;5.45;;;1.38;;
78508;SDS011;67802;50.846;7.958;2023-07-20T20:05:08;2.78;;;1.30;;
78508;SDS011;67802;50.846;7.958;2023-07-20T20:07:34;2.45;;;1.30;;
78508;SDS011;67802;50.846;7.958;2023-07-20T20:10:00;3.63;;;1.30;;
78508;SDS011;67802;50.846;7.958;2023-07-20T20:12:26;2.60;;;1.10;;
78508;SDS011;67802;50.846;7.958;2023-07-20T20:14:51;2.17;;;1.15;;
78508;SDS011;67802;50.846;7.958;2023-07-20T20:17:17;2.78;;;1.50;;
78508;SDS011;67802;50.846;7.958;2023-07-20T20:19:42;3.33;;;1.58;;
78508;SDS011;67802;50.846;7.958;2023-07-20T20:22:08;2.97;;;1.25;;
78508;SDS011;67802;50.846;7.958;2023-07-20T20:24:34;2.35;;;1.20;;
78508;SDS011;67802;50.846;7.958;2023-07-20T20:26:59;2.65;;;1.38;;
78508;SDS011;67802;50.846;7.958;2023-07-20T20:29:24;3.92;;;1.40;;
78508;SDS011;67802;50.846;7.958;2023-07-20T20:31:50;3.83;;;1.40;;
78508;SDS011;67802;50.846;7.958;2023-07-20T20:34:15;3.78;;;1.40;;
78508;SDS011;67802;50.846;7.958;2023-07-20T20:36:40;3.00;;;1.27;;
78508;SDS011;67802;50.846;7.958;2023-07-20T20:39:08;3.08;;;1.30;;
78508;SDS011;67802;50.846;7.958;2023-07-20T20:41:33;3.47;;;1.40;;
78508;SDS011;67802;50.846;7.958;2023-07-20T20:44:12;4.35;;;1.67;;
78508;SDS011;67802;50.846;7.958;2023-07-20T20:46:43;3.55;;;1.50;;
78508;SDS011;67802;50.846;7.958;2023-07-20T20:49:09;2.83;;;1.40;;
78508;SDS011;67802;50.846;7.958;2023-07-20T20:51:34;3.03;;;1.45;;
78508;SDS011;67802;50.846;7.958;2023-07-20T20:54:00;3.97;;;1.67;;
78508;SDS011;67802;50.846;7.958;2023-07-20T20:56:25;4.82;;;1.65;;
78508;SDS011;67802;50.846;7.958;2023-07-20T20:58:50;3.38;;;1.60;;
78508;SDS011;67802;50.846;7.958;2023-07-20T21:01:16;2.90;;;1.45;;
78508;SDS011;67802;50.846;7.958;2023-07-20T21:03:41;3.35;;;1.60;;
78508;SDS011;67802;50.846;7.958;2023-07-20T21:06:06;3.22;;;1.63;;
78508;SDS011;67802;50.846;7.958;2023-07-20T21:08:32;3.00;;;1.48;;
78508;SDS011;67802;50.846;7.958;2023-07-20T21:10:58;2.55;;;1.23;;
78508;SDS011;67802;50.846;7.958;2023-07-20T21:13:23;4.05;;;1.63;;
78508;SDS011;67802;50.846;7.958;2023-07-20T21:15:51;3.08;;;1.50;;
78508;SDS011;67802;50.846;7.958;2023-07-20T21:18:17;4.22;;;1.80;;
78508;SDS011;67802;50.846;7.958;2023-07-20T21:20:42;4.75;;;1.63;;
78508;SDS011;67802;50.846;7.958;2023-07-20T21:23:09;3.35;;;1.65;;
78508;SDS011;67802;50.846;7.958;2023-07-20T21:25:34;3.38;;;1.50;;
78508;SDS011;67802;50.846;7.958;2023-07-20T21:28:00;3.80;;;1.48;;
78508;SDS011;67802;50.846;7.958;2023-07-20T21:30:25;3.38;;;1.60;;
78508;SDS011;67802;50.846;7.958;2023-07-20T21:32:52;3.63;;;1.63;;
78508;SDS011;67802;50.846;7.958;2023-07-20T21:35:18;3.33;;;1.75;;
78508;SDS011;67802;50.846;7.958;2023-07-20T21:37:43;3.35;;;1.60;;
78508;SDS011;67802;50.846;7.958;2023-07-20T21:40:08;3.22;;;1.60;;
78508;SDS011;67802;50.846;7.958;2023-07-20T21:42:34;3.05;;;1.70;;
78508;SDS011;67802;50.846;7.958;2023-07-20T21:45:02;3.50;;;1.80;;
78508;SDS011;67802;50.846;7.958;2023-07-20T21:47:28;3.25;;;1.65;;
78508;SDS011;67802;50.846;7.958;2023-07-20T21:49:53;4.63;;;1.90;;
78508;SDS011;67802;50.846;7.958;2023-07-20T21:52:18;2.88;;;1.40;;
78508;SDS011;67802;50.846;7.958;2023-07-20T21:54:44;4.63;;;2.17;;
78508;SDS011;67802;50.846;7.958;2023-07-20T21:57:09;5.55;;;1.90;;
78508;SDS011;67802;50.846;7.958;2023-07-20T21:59:34;3.55;;;1.70;;
78508;SDS011;67802;50.846;7.958;2023-07-20T22:02:00;3.33;;;1.70;;
78508;SDS011;67802;50.846;7.958;2023-07-20T22:04:26;3.90;;;1.80;;
78508;SDS011;67802;50.846;7.958;2023-07-20T22:06:51;3.67;;;1.70;;
78508;SDS011;67802;50.846;7.958;2023-07-20T22:09:17;4.15;;;1.83;;
78508;SDS011;67802;50.846;7.958;2023-07-20T22:11:42;4.43;;;2.05;;
78508;SDS011;67802;50.846;7.958;2023-07-20T22:14:08;3.78;;;1.67;;
78508;SDS011;67802;50.846;7.958;2023-07-20T22:16:33;3.70;;;1.90;;
78508;SDS011;67802;50.846;7.958;2023-07-20T22:18:59;3.75;;;1.88;;
78508;SDS011;67802;50.846;7.958;2023-07-20T22:21:24;5.15;;;1.70;;
78508;SDS011;67802;50.846;7.958;2023-07-20T22:23:50;4.15;;;1.90;;
78508;SDS011;67802;50.846;7.958;2023-07-20T22:26:15;3.92;;;1.95;;
78508;SDS011;67802;50.846;7.958;2023-07-20T22:28:42;3.28;;;1.60;;
78508;SDS011;67802;50.846;7.958;2023-07-20T22:31:08;4.25;;;1.80;;
78508;SDS011;67802;50.846;7.958;2023-07-20T22:33:34;4.05;;;2.00;;
78508;SDS011;67802;50.846;7.958;2023-07-20T22:35:59;4.88;;;1.90;;
78508;SDS011;67802;50.846;7.958;2023-07-20T22:38:25;3.65;;;1.90;;
78508;SDS011;67802;50.846;7.958;2023-07-20T22:40:50;3.70;;;2.00;;
78508;SDS011;67802;50.846;7.958;2023-07-20T22:43:16;4.20;;;1.85;;
78508;SDS011;67802;50.846;7.958;2023-07-20T22:45:42;4.03;;;2.17;;
78508;SDS011;67802;50.846;7.958;2023-07-20T22:48:08;4.70;;;2.25;;
78508;SDS011;67802;50.846;7.958;2023-07-20T22:50:33;3.60;;;1.90;;
78508;SDS011;67802;50.846;7.958;2023-07-20T22:52:58;4.20;;;2.03;;
78508;SDS011;67802;50.846;7.958;2023-07-20T22:55:24;3.80;;;1.70;;
78508;SDS011;67802;50.846;7.958;2023-07-20T22:57:49;4.75;;;2.08;;
78508;SDS011;67802;50.846;7.958;2023-07-20T23:00:16;4.00;;;1.92;;
78508;SDS011;67802;50.846;7.958;2023-07-20T23:02:48;3.90;;;2.22;;
78508;SDS011;67802;50.846;7.958;2023-07-20T23:05:14;4.43;;;1.80;;
78508;SDS011;67802;50.846;7.958;2023-07-20T23:07:41;4.10;;;2.03;;
78508;SDS011;67802;50.846;7.958;2023-07-20T23:10:06;3.85;;;1.92;;
78508;SDS011;67802;50.846;7.958;2023-07-20T23:12:34;4.05;;;2.13;;
78508;SDS011;67802;50.846;7.958;2023-07-20T23:15:00;4.03;;;2.00;;
78508;SDS011;67802;50.846;7.958;2023-07-20T23:17:25;4.53;;;2.10;;
78508;SDS011;67802;50.846;7.958;2023-07-20T23:19:51;3.83;;;2.00;;
78508;SDS011;67802;50.846;7.958;2023-07-20T23:22:16;4.10;;;1.95;;
78508;SDS011;67802;50.846;7.958;2023-07-20T23:24:43;4.22;;;2.38;;
78508;SDS011;67802;50.846;7.958;2023-07-20T23:27:09;3.95;;;2.20;;
78508;SDS011;67802;50.846;7.958;2023-07-20T23:29:34;4.65;;;2.30;;
78508;SDS011;67802;50.846;7.958;2023-07-20T23:31:59;4.43;;;2.10;;
78508;SDS011;67802;50.846;7.958;2023-07-20T23:34:26;3.88;;;1.92;;
78508;SDS011;67802;50.846;7.958;2023-07-20T23:36:51;4.40;;;2.13;;
78508;SDS011;67802;50.846;7.958;2023-07-20T23:39:17;4.22;;;2.20;;
78508;SDS011;67802;50.846;7.958;2023-07-20T23:41:43;5.00;;;2.30;;
78508;SDS011;67802;50.846;7.958;2023-07-20T23:44:08;4.20;;;2.00;;
78508;SDS011;67802;50.846;7.958;2023-07-20T23:46:34;4.32;;;2.20;;
78508;SDS011;67802;50.846;7.958;2023-07-20T23:48:59;4.93;;;2.17;;
78508;SDS011;67802;50.846;7.958;2023-07-20T23:51:25;4.65;;;2.10;;
78508;SDS011;67802;50.846;7.958;2023-07-20T23:53:51;4.28;;;1.80;;
78508;SDS011;67802;50.846;7.958;2023-07-20T23:56:16;4.38;;;2.35;;
78508;SDS011;67802;50.846;7.958;2023-07-20T23:58:43;3.72;;;1.90;;
